sensor_id;sensor_type;location;lat;lon;timestamp;pressure;altitude;pressure_sealevel;temperature;humidity
41712;BME280;27399;51.516;13.670;2023-08-06T00:00:40;99730.50;;;20.05;89.29
41712;BME280;27399;51.516;13.670;2023-08-06T00:03:05;99731.63;;;20.01;89.54
41712;BME280;27399;51.516;13.670;2023-08-06T00:05:31;99730.00;;;19.98;89.16
41712;BME280;27399;51.516;13.670;2023-08-06T00:07:57;99729.41;;;19.93;88.98
41712;BME280;27399;51.516;13.670;2023-08-06T00:10:22;99725.38;;;20.00;89.30
41712;BME280;27399;51.516;13.670;2023-08-06T00:12:48;99718.06;;;19.86;89.86
41712;BME280;27399;51.516;13.670;2023-08-06T00:15:14;99726.97;;;19.72;89.59
41712;BME280;27399;51.516;13.670;2023-08-06T00:17:39;99721.81;;;19.84;89.58
41712;BME280;27399;51.516;13.670;2023-08-06T00:20:06;99722.81;;;19.81;90.08
41712;BME280;27399;51.516;13.670;2023-08-06T00:22:36;99711.59;;;19.73;90.06
41712;BME280;27399;51.516;13.670;2023-08-06T00:25:02;99711.03;;;19.82;90.25
41712;BME280;27399;51.516;13.670;2023-08-06T00:27:28;99710.25;;;19.80;89.98
41712;BME280;27399;51.516;13.670;2023-08-06T00:29:54;99694.41;;;19.74;90.42
41712;BME280;27399;51.516;13.670;2023-08-06T00:32:19;99698.94;;;19.73;90.36
41712;BME280;27399;51.516;13.670;2023-08-06T00:34:45;99697.28;;;19.71;91.23
41712;BME280;27399;51.516;13.670;2023-08-06T00:37:11;99697.91;;;19.76;90.36
41712;BME280;27399;51.516;13.670;2023-08-06T00:39:36;99687.13;;;19.74;91.10
41712;BME280;27399;51.516;13.670;2023-08-06T00:42:02;99678.97;;;19.76;90.83
41712;BME280;27399;51.516;13.670;2023-08-06T00:44:28;99679.81;;;19.76;90.76
41712;BME280;27399;51.516;13.670;2023-08-06T00:46:55;99674.00;;;19.68;90.57
41712;BME280;27399;51.516;13.670;2023-08-06T00:49:21;99676.25;;;19.76;90.71
41712;BME280;27399;51.516;13.670;2023-08-06T00:51:47;99670.16;;;19.72;91.33
41712;BME280;27399;51.516;13.670;2023-08-06T00:54:12;99666.66;;;19.70;90.60
41712;BME280;27399;51.516;13.670;2023-08-06T00:56:38;99666.38;;;19.75;91.01
41712;BME280;27399;51.516;13.670;2023-08-06T00:59:05;99678.00;;;19.77;91.36
41712;BME280;27399;51.516;13.670;2023-08-06T01:01:31;99676.66;;;19.84;90.69
41712;BME280;27399;51.516;13.670;2023-08-06T01:03:57;99675.88;;;19.82;91.11
41712;BME280;27399;51.516;13.670;2023-08-06T01:06:35;99673.34;;;19.79;91.24
41712;BME280;27399;51.516;13.670;2023-08-06T01:14:31;99672.50;;;19.78;91.26
41712;BME280;27399;51.516;13.670;2023-08-06T01:17:01;99668.94;;;19.78;91.55
41712;BME280;27399;51.516;13.670;2023-08-06T01:19:27;99670.47;;;19.82;91.60
41712;BME280;27399;51.516;13.670;2023-08-06T01:21:52;99668.13;;;19.76;91.83
41712;BME280;27399;51.516;13.670;2023-08-06T01:24:18;99664.28;;;19.80;91.41
41712;BME280;27399;51.516;13.670;2023-08-06T01:27:01;99658.84;;;19.80;90.82
41712;BME280;27399;51.516;13.670;2023-08-06T01:29:39;99663.84;;;19.88;90.43
41712;BME280;27399;51.516;13.670;2023-08-06T01:32:08;99665.84;;;19.84;90.04
41712;BME280;27399;51.516;13.670;2023-08-06T01:34:39;99668.13;;;19.92;89.31
41712;BME280;27399;51.516;13.670;2023-08-06T01:37:06;99650.47;;;19.85;91.08
41712;BME280;27399;51.516;13.670;2023-08-06T01:39:34;99641.50;;;19.84;90.75
41712;BME280;27399;51.516;13.670;2023-08-06T01:42:00;99648.59;;;19.87;89.97
41712;BME280;27399;51.516;13.670;2023-08-06T01:44:26;99635.13;;;19.85;90.12
41712;BME280;27399;51.516;13.670;2023-08-06T01:46:52;99641.50;;;19.84;90.26
41712;BME280;27399;51.516;13.670;2023-08-06T01:49:17;99632.97;;;19.76;91.13
41712;BME280;27399;51.516;13.670;2023-08-06T01:51:43;99629.88;;;19.82;90.94
41712;BME280;27399;51.516;13.670;2023-08-06T01:54:08;99620.81;;;19.83;91.01
41712;BME280;27399;51.516;13.670;2023-08-06T01:56:34;99623.97;;;19.75;90.80
41712;BME280;27399;51.516;13.670;2023-08-06T01:58:59;99616.13;;;19.71;90.90
41712;BME280;27399;51.516;13.670;2023-08-06T02:01:25;99620.41;;;19.75;91.36
41712;BME280;27399;51.516;13.670;2023-08-06T02:03:50;99615.78;;;19.77;91.11
41712;BME280;27399;51.516;13.670;2023-08-06T02:06:16;99608.81;;;19.73;91.35
41712;BME280;27399;51.516;13.670;2023-08-06T02:08:42;99610.38;;;19.77;91.12
41712;BME280;27399;51.516;13.670;2023-08-06T02:11:07;99600.84;;;19.70;91.38
41712;BME280;27399;51.516;13.670;2023-08-06T02:13:33;99607.06;;;19.72;91.38
41712;BME280;27399;51.516;13.670;2023-08-06T02:15:58;99596.97;;;19.59;91.26
41712;BME280;27399;51.516;13.670;2023-08-06T02:18:24;99601.06;;;19.66;91.10
41712;BME280;27399;51.516;13.670;2023-08-06T02:20:56;99605.88;;;19.61;91.46
41712;BME280;27399;51.516;13.670;2023-08-06T02:23:26;99607.25;;;19.52;91.24
41712;BME280;27399;51.516;13.670;2023-08-06T02:26:01;99603.09;;;19.63;91.63
41712;BME280;27399;51.516;13.670;2023-08-06T02:28:28;99604.78;;;19.64;91.31
41712;BME280;27399;51.516;13.670;2023-08-06T02:30:54;99598.34;;;19.66;91.32
41712;BME280;27399;51.516;13.670;2023-08-06T02:33:19;99594.09;;;19.62;91.67
41712;BME280;27399;51.516;13.670;2023-08-06T02:35:45;99600.00;;;19.69;91.57
41712;BME280;27399;51.516;13.670;2023-08-06T02:38:10;99599.91;;;19.71;91.17
41712;BME280;27399;51.516;13.670;2023-08-06T02:40:36;99603.94;;;19.63;90.97
41712;BME280;27399;51.516;13.670;2023-08-06T02:43:02;99603.56;;;19.70;91.04
41712;BME280;27399;51.516;13.670;2023-08-06T02:45:29;99592.16;;;19.64;91.01
41712;BME280;27399;51.516;13.670;2023-08-06T02:47:55;99600.78;;;19.71;91.02
41712;BME280;27399;51.516;13.670;2023-08-06T02:50:20;99598.88;;;19.73;90.94
41712;BME280;27399;51.516;13.670;2023-08-06T02:52:46;99602.31;;;19.75;91.11
41712;BME280;27399;51.516;13.670;2023-08-06T02:55:11;99594.09;;;19.62;91.40
41712;BME280;27399;51.516;13.670;2023-08-06T02:57:37;99597.75;;;19.61;91.22
41712;BME280;27399;51.516;13.670;2023-08-06T03:00:02;99590.31;;;19.65;90.83
41712;BME280;27399;51.516;13.670;2023-08-06T03:02:28;99584.50;;;19.57;91.28
41712;BME280;27399;51.516;13.670;2023-08-06T03:04:54;99584.63;;;19.70;90.89
41712;BME280;27399;51.516;13.670;2023-08-06T03:07:19;99576.91;;;19.63;91.15
41712;BME280;27399;51.516;13.670;2023-08-06T03:09:45;99571.50;;;19.63;91.35
41712;BME280;27399;51.516;13.670;2023-08-06T03:12:11;99562.75;;;19.58;91.00
41712;BME280;27399;51.516;13.670;2023-08-06T03:14:36;99573.97;;;19.52;91.26
41712;BME280;27399;51.516;13.670;2023-08-06T03:17:02;99565.56;;;19.57;91.34
41712;BME280;27399;51.516;13.670;2023-08-06T03:19:27;99567.41;;;19.56;91.23
41712;BME280;27399;51.516;13.670;2023-08-06T03:21:53;99555.81;;;19.54;91.52
41712;BME280;27399;51.516;13.670;2023-08-06T03:24:19;99556.25;;;19.46;91.61
41712;BME280;27399;51.516;13.670;2023-08-06T03:26:45;99545.56;;;19.45;91.67
41712;BME280;27399;51.516;13.670;2023-08-06T03:29:10;99542.84;;;19.45;91.44
41712;BME280;27399;51.516;13.670;2023-08-06T03:31:36;99533.94;;;19.43;91.48
41712;BME280;27399;51.516;13.670;2023-08-06T03:34:02;99524.88;;;19.44;91.70
41712;BME280;27399;51.516;13.670;2023-08-06T03:36:27;99525.66;;;19.46;92.08
41712;BME280;27399;51.516;13.670;2023-08-06T03:38:53;99522.97;;;19.46;91.70
41712;BME280;27399;51.516;13.670;2023-08-06T03:41:18;99526.56;;;19.30;91.60
41712;BME280;27399;51.516;13.670;2023-08-06T03:43:44;99518.09;;;19.36;91.53
41712;BME280;27399;51.516;13.670;2023-08-06T03:46:09;99516.72;;;19.29;91.75
41712;BME280;27399;51.516;13.670;2023-08-06T03:48:35;99505.13;;;19.27;91.55
41712;BME280;27399;51.516;13.670;2023-08-06T03:51:01;99505.56;;;19.35;91.98
41712;BME280;27399;51.516;13.670;2023-08-06T03:53:27;99505.63;;;19.34;92.19
41712;BME280;27399;51.516;13.670;2023-08-06T03:55:52;99497.63;;;19.32;91.88
41712;BME280;27399;51.516;13.670;2023-08-06T03:58:18;99492.72;;;19.39;91.58
41712;BME280;27399;51.516;13.670;2023-08-06T04:00:44;99493.00;;;19.34;91.46
41712;BME280;27399;51.516;13.670;2023-08-06T04:03:09;99495.31;;;19.41;91.24
41712;BME280;27399;51.516;13.670;2023-08-06T04:05:35;99491.31;;;19.32;91.75
41712;BME280;27399;51.516;13.670;2023-08-06T04:08:00;99481.91;;;19.39;91.77
41712;BME280;27399;51.516;13.670;2023-08-06T04:10:27;99485.75;;;19.35;92.18
41712;BME280;27399;51.516;13.670;2023-08-06T04:12:52;99483.31;;;19.30;91.90
41712;BME280;27399;51.516;13.670;2023-08-06T04:15:18;99486.34;;;19.40;91.83
41712;BME280;27399;51.516;13.670;2023-08-06T04:17:43;99477.53;;;19.36;92.16
41712;BME280;27399;51.516;13.670;2023-08-06T04:20:09;99478.25;;;19.40;92.04
41712;BME280;27399;51.516;13.670;2023-08-06T04:22:35;99483.44;;;19.43;92.38
41712;BME280;27399;51.516;13.670;2023-08-06T04:25:00;99479.72;;;19.46;91.95
41712;BME280;27399;51.516;13.670;2023-08-06T04:27:26;99469.84;;;19.45;92.06
41712;BME280;27399;51.516;13.670;2023-08-06T04:29:52;99465.97;;;19.49;91.81
41712;BME280;27399;51.516;13.670;2023-08-06T04:32:17;99469.94;;;19.43;91.43
41712;BME280;27399;51.516;13.670;2023-08-06T04:34:44;99456.91;;;19.35;91.43
41712;BME280;27399;51.516;13.670;2023-08-06T04:37:10;99458.16;;;19.44;92.04
41712;BME280;27399;51.516;13.670;2023-08-06T04:39:36;99458.81;;;19.48;91.95
41712;BME280;27399;51.516;13.670;2023-08-06T04:42:01;99459.03;;;19.45;92.19
41712;BME280;27399;51.516;13.670;2023-08-06T04:44:27;99453.53;;;19.46;92.31
41712;BME280;27399;51.516;13.670;2023-08-06T04:46:53;99441.06;;;19.44;92.25
41712;BME280;27399;51.516;13.670;2023-08-06T04:49:20;99455.16;;;19.49;92.39
41712;BME280;27399;51.516;13.670;2023-08-06T04:51:46;99446.31;;;19.47;91.99
41712;BME280;27399;51.516;13.670;2023-08-06T04:54:12;99446.03;;;19.51;91.52
41712;BME280;27399;51.516;13.670;2023-08-06T04:56:37;99444.00;;;19.55;91.71
41712;BME280;27399;51.516;13.670;2023-08-06T04:59:03;99441.19;;;19.57;91.12
41712;BME280;27399;51.516;13.670;2023-08-06T05:01:28;99441.19;;;19.57;91.63
41712;BME280;27399;51.516;13.670;2023-08-06T05:03:54;99436.44;;;19.60;91.53
41712;BME280;27399;51.516;13.670;2023-08-06T05:06:20;99430.75;;;19.65;91.42
41712;BME280;27399;51.516;13.670;2023-08-06T05:08:45;99430.97;;;19.62;91.82
41712;BME280;27399;51.516;13.670;2023-08-06T05:11:46;99435.59;;;19.60;91.99
41712;BME280;27399;51.516;13.670;2023-08-06T05:14:21;99433.53;;;19.49;92.75
41712;BME280;27399;51.516;13.670;2023-08-06T05:16:48;99437.59;;;19.42;93.28
41712;BME280;27399;51.516;13.670;2023-08-06T05:19:18;99425.81;;;19.43;93.04
41712;BME280;27399;51.516;13.670;2023-08-06T05:21:44;99425.25;;;19.52;92.78
41712;BME280;27399;51.516;13.670;2023-08-06T05:24:10;99427.78;;;19.55;92.67
41712;BME280;27399;51.516;13.670;2023-08-06T05:26:47;99429.00;;;19.49;92.49
41712;BME280;27399;51.516;13.670;2023-08-06T05:29:19;99426.09;;;19.52;92.42
41712;BME280;27399;51.516;13.670;2023-08-06T05:31:44;99426.22;;;19.65;91.94
41712;BME280;27399;51.516;13.670;2023-08-06T05:34:10;99428.72;;;19.54;92.73
41712;BME280;27399;51.516;13.670;2023-08-06T05:36:43;99423.88;;;19.59;91.66
41712;BME280;27399;51.516;13.670;2023-08-06T05:39:10;99426.00;;;19.69;91.67
41712;BME280;27399;51.516;13.670;2023-08-06T05:42:03;99428.34;;;19.60;91.89
41712;BME280;27399;51.516;13.670;2023-08-06T05:44:57;99422.16;;;19.58;91.87
41712;BME280;27399;51.516;13.670;2023-08-06T05:47:23;99420.03;;;19.63;92.30
41712;BME280;27399;51.516;13.670;2023-08-06T05:49:48;99426.00;;;19.69;92.24
41712;BME280;27399;51.516;13.670;2023-08-06T05:52:14;99415.97;;;19.71;92.79
41712;BME280;27399;51.516;13.670;2023-08-06T05:54:40;99413.09;;;19.74;92.62
41712;BME280;27399;51.516;13.670;2023-08-06T05:57:06;99413.19;;;19.72;93.01
41712;BME280;27399;51.516;13.670;2023-08-06T05:59:32;99417.34;;;19.78;93.03
41712;BME280;27399;51.516;13.670;2023-08-06T06:01:57;99407.78;;;19.72;93.04
41712;BME280;27399;51.516;13.670;2023-08-06T06:04:23;99410.94;;;19.79;92.88
41712;BME280;27399;51.516;13.670;2023-08-06T06:06:48;99417.34;;;19.78;92.80
41712;BME280;27399;51.516;13.670;2023-08-06T06:09:17;99419.94;;;19.79;92.58
41712;BME280;27399;51.516;13.670;2023-08-06T06:11:51;99417.13;;;19.81;92.20
41712;BME280;27399;51.516;13.670;2023-08-06T06:14:22;99417.72;;;19.72;92.19
41712;BME280;27399;51.516;13.670;2023-08-06T06:16:48;99411.34;;;19.73;91.70
41712;BME280;27399;51.516;13.670;2023-08-06T06:19:18;99420.25;;;19.75;91.59
41712;BME280;27399;51.516;13.670;2023-08-06T06:21:46;99413.94;;;19.74;91.90
41712;BME280;27399;51.516;13.670;2023-08-06T06:24:12;99407.09;;;19.83;92.16
41712;BME280;27399;51.516;13.670;2023-08-06T06:26:38;99406.53;;;19.78;92.10
41712;BME280;27399;51.516;13.670;2023-08-06T06:29:04;99402.75;;;19.80;92.32
41712;BME280;27399;51.516;13.670;2023-08-06T06:31:30;99400.34;;;19.76;92.07
41712;BME280;27399;51.516;13.670;2023-08-06T06:34:00;99403.34;;;19.86;91.30
41712;BME280;27399;51.516;13.670;2023-08-06T06:36:26;99406.84;;;19.88;91.54
41712;BME280;27399;51.516;13.670;2023-08-06T06:38:53;99406.31;;;19.81;91.77
41712;BME280;27399;51.516;13.670;2023-08-06T06:41:24;99393.19;;;19.75;91.72
41712;BME280;27399;51.516;13.670;2023-08-06T06:43:51;99401.97;;;19.78;91.21
41712;BME280;27399;51.516;13.670;2023-08-06T06:49:15;99401.56;;;19.85;91.96
41712;BME280;27399;51.516;13.670;2023-08-06T06:51:43;99400.34;;;19.90;92.12
41712;BME280;27399;51.516;13.670;2023-08-06T06:54:42;99395.81;;;19.91;90.87
41712;BME280;27399;51.516;13.670;2023-08-06T06:57:08;99394.28;;;19.87;92.21
41712;BME280;27399;51.516;13.670;2023-08-06T06:59:36;99391.09;;;19.94;91.16
41712;BME280;27399;51.516;13.670;2023-08-06T07:02:03;99390.91;;;19.97;90.95
41712;BME280;27399;51.516;13.670;2023-08-06T07:04:29;99399.66;;;19.58;91.12
41712;BME280;27399;51.516;13.670;2023-08-06T07:06:57;99396.09;;;19.72;90.67
41712;BME280;27399;51.516;13.670;2023-08-06T07:09:23;99400.31;;;19.61;91.13
41712;BME280;27399;51.516;13.670;2023-08-06T07:11:48;99397.25;;;19.67;91.94
41712;BME280;27399;51.516;13.670;2023-08-06T07:14:14;99401.31;;;19.75;91.57
41712;BME280;27399;51.516;13.670;2023-08-06T07:16:41;99409.66;;;19.86;91.75
41712;BME280;27399;51.516;13.670;2023-08-06T07:19:07;99406.81;;;19.59;91.47
41712;BME280;27399;51.516;13.670;2023-08-06T07:21:33;99414.25;;;19.84;90.76
41712;BME280;27399;51.516;13.670;2023-08-06T07:23:58;99410.69;;;19.84;91.74
41712;BME280;27399;51.516;13.670;2023-08-06T07:26:25;99413.03;;;19.90;92.32
41712;BME280;27399;51.516;13.670;2023-08-06T07:28:50;99415.84;;;19.88;93.26
41712;BME280;27399;51.516;13.670;2023-08-06T07:31:16;99412.63;;;19.96;92.81
41712;BME280;27399;51.516;13.670;2023-08-06T07:33:41;99414.72;;;20.05;92.58
41712;BME280;27399;51.516;13.670;2023-08-06T07:36:09;99410.31;;;20.04;92.55
41712;BME280;27399;51.516;13.670;2023-08-06T07:38:36;99417.44;;;20.05;92.45
41712;BME280;27399;51.516;13.670;2023-08-06T07:41:02;99416.97;;;20.13;91.99
41712;BME280;27399;51.516;13.670;2023-08-06T07:43:28;99411.47;;;20.15;92.04
41712;BME280;27399;51.516;13.670;2023-08-06T07:45:53;99411.75;;;20.10;91.72
41712;BME280;27399;51.516;13.670;2023-08-06T07:48:19;99411.16;;;20.19;91.63
41712;BME280;27399;51.516;13.670;2023-08-06T07:50:44;99402.47;;;20.14;89.79
41712;BME280;27399;51.516;13.670;2023-08-06T07:53:15;99406.31;;;20.24;91.51
41712;BME280;27399;51.516;13.670;2023-08-06T07:55:54;99403.59;;;20.24;92.25
41712;BME280;27399;51.516;13.670;2023-08-06T07:58:21;99407.28;;;20.23;90.44
41712;BME280;27399;51.516;13.670;2023-08-06T08:00:51;99406.50;;;20.21;91.07
41712;BME280;27399;51.516;13.670;2023-08-06T08:03:20;99398.78;;;20.30;92.24
41712;BME280;27399;51.516;13.670;2023-08-06T08:05:46;99399.75;;;20.28;91.48
41712;BME280;27399;51.516;13.670;2023-08-06T08:08:15;99398.53;;;20.33;91.25
41712;BME280;27399;51.516;13.670;2023-08-06T08:10:41;99388.72;;;20.32;91.49
41712;BME280;27399;51.516;13.670;2023-08-06T08:13:07;99383.31;;;20.32;92.48
41712;BME280;27399;51.516;13.670;2023-08-06T08:15:34;99384.31;;;20.43;91.57
41712;BME280;27399;51.516;13.670;2023-08-06T08:17:59;99369.00;;;20.30;90.91
41712;BME280;27399;51.516;13.670;2023-08-06T08:20:26;99373.31;;;20.32;92.83
41712;BME280;27399;51.516;13.670;2023-08-06T08:22:57;99371.69;;;20.30;93.27
41712;BME280;27399;51.516;13.670;2023-08-06T08:25:23;99366.13;;;20.46;91.12
41712;BME280;27399;51.516;13.670;2023-08-06T08:27:49;99363.13;;;20.50;89.83
41712;BME280;27399;51.516;13.670;2023-08-06T08:30:14;99358.25;;;20.55;91.42
41712;BME280;27399;51.516;13.670;2023-08-06T08:32:40;99355.53;;;20.55;91.70
41712;BME280;27399;51.516;13.670;2023-08-06T08:35:05;99349.34;;;20.53;90.77
41712;BME280;27399;51.516;13.670;2023-08-06T08:37:31;99358.81;;;20.61;91.64
41712;BME280;27399;51.516;13.670;2023-08-06T08:39:59;99349.31;;;20.68;89.93
41712;BME280;27399;51.516;13.670;2023-08-06T08:42:26;99348.13;;;20.72;89.38
41712;BME280;27399;51.516;13.670;2023-08-06T08:44:53;99340.81;;;20.74;90.60
41712;BME280;27399;51.516;13.670;2023-08-06T08:47:20;99347.72;;;20.78;90.66
41712;BME280;27399;51.516;13.670;2023-08-06T08:49:47;99343.50;;;20.47;89.31
41712;BME280;27399;51.516;13.670;2023-08-06T08:52:16;99344.66;;;20.70;89.14
41712;BME280;27399;51.516;13.670;2023-08-06T08:54:44;99337.09;;;20.75;90.63
41712;BME280;27399;51.516;13.670;2023-08-06T08:57:11;99328.78;;;20.78;90.85
41712;BME280;27399;51.516;13.670;2023-08-06T08:59:36;99322.38;;;20.79;91.61
41712;BME280;27399;51.516;13.670;2023-08-06T09:02:02;99318.91;;;20.77;90.61
41712;BME280;27399;51.516;13.670;2023-08-06T09:04:31;99322.50;;;20.90;90.21
41712;BME280;27399;51.516;13.670;2023-08-06T09:06:58;99316.88;;;20.94;89.40
41712;BME280;27399;51.516;13.670;2023-08-06T09:09:26;99314.91;;;20.96;88.72
41712;BME280;27399;51.516;13.670;2023-08-06T09:11:59;99317.22;;;20.89;89.38
41712;BME280;27399;51.516;13.670;2023-08-06T09:14:26;99309.41;;;20.84;91.12
41712;BME280;27399;51.516;13.670;2023-08-06T09:16:52;99315.03;;;20.94;90.07
41712;BME280;27399;51.516;13.670;2023-08-06T09:19:17;99308.00;;;20.92;90.49
41712;BME280;27399;51.516;13.670;2023-08-06T09:21:46;99299.22;;;21.01;89.96
41712;BME280;27399;51.516;13.670;2023-08-06T09:24:14;99298.13;;;20.90;89.27
41712;BME280;27399;51.516;13.670;2023-08-06T09:26:41;99298.66;;;20.96;90.29
41712;BME280;27399;51.516;13.670;2023-08-06T09:29:08;99305.09;;;20.95;92.04
41712;BME280;27399;51.516;13.670;2023-08-06T09:31:43;99298.91;;;20.93;89.86
41712;BME280;27399;51.516;13.670;2023-08-06T09:34:15;99303.53;;;20.90;89.42
41712;BME280;27399;51.516;13.670;2023-08-06T09:36:49;99303.09;;;20.97;88.78
41712;BME280;27399;51.516;13.670;2023-08-06T09:39:28;99293.16;;;20.97;90.74
41712;BME280;27399;51.516;13.670;2023-08-06T09:41:58;99297.28;;;21.03;91.65
41712;BME280;27399;51.516;13.670;2023-08-06T09:44:26;99276.00;;;20.97;90.97
41712;BME280;27399;51.516;13.670;2023-08-06T09:46:54;99301.16;;;21.12;88.73
41712;BME280;27399;51.516;13.670;2023-08-06T09:49:41;99294.34;;;21.19;91.21
41712;BME280;27399;51.516;13.670;2023-08-06T09:52:14;99296.19;;;21.05;92.25
41712;BME280;27399;51.516;13.670;2023-08-06T09:54:43;99287.94;;;21.07;91.33
41712;BME280;27399;51.516;13.670;2023-08-06T09:57:08;99293.25;;;21.21;91.11
41712;BME280;27399;51.516;13.670;2023-08-06T09:59:35;99289.00;;;21.17;90.93
41712;BME280;27399;51.516;13.670;2023-08-06T10:02:02;99282.75;;;21.04;92.27
41712;BME280;27399;51.516;13.670;2023-08-06T10:04:31;99281.88;;;21.29;89.87
41712;BME280;27399;51.516;13.670;2023-08-06T10:06:58;99290.09;;;21.28;91.09
41712;BME280;27399;51.516;13.670;2023-08-06T10:09:32;99286.88;;;21.23;89.57
41712;BME280;27399;51.516;13.670;2023-08-06T10:11:58;99285.34;;;21.18;89.71
41712;BME280;27399;51.516;13.670;2023-08-06T10:14:28;99288.47;;;21.25;90.45
41712;BME280;27399;51.516;13.670;2023-08-06T10:17:03;99272.00;;;21.28;88.54
41712;BME280;27399;51.516;13.670;2023-08-06T10:19:41;99269.06;;;21.18;87.52
41712;BME280;27399;51.516;13.670;2023-08-06T10:25:02;99266.69;;;21.27;89.29
41712;BME280;27399;51.516;13.670;2023-08-06T10:30:28;99263.13;;;21.13;90.15
41712;BME280;27399;51.516;13.670;2023-08-06T10:35:45;99263.22;;;21.38;88.40
41712;BME280;27399;51.516;13.670;2023-08-06T10:38:21;99263.66;;;21.31;86.89
41712;BME280;27399;51.516;13.670;2023-08-06T10:41:05;99260.28;;;21.28;89.77
41712;BME280;27399;51.516;13.670;2023-08-06T10:43:37;99249.56;;;21.13;89.91
41712;BME280;27399;51.516;13.670;2023-08-06T10:46:26;99241.84;;;21.33;89.72
41712;BME280;27399;51.516;13.670;2023-08-06T10:49:19;99254.84;;;21.41;90.99
41712;BME280;27399;51.516;13.670;2023-08-06T10:52:13;99249.78;;;21.36;91.74
41712;BME280;27399;51.516;13.670;2023-08-06T10:54:39;99246.47;;;21.44;90.13
41712;BME280;27399;51.516;13.670;2023-08-06T10:57:09;99228.63;;;21.28;87.93
41712;BME280;27399;51.516;13.670;2023-08-06T10:59:53;99240.00;;;21.46;89.59
41712;BME280;27399;51.516;13.670;2023-08-06T11:02:26;99245.41;;;21.46;90.27
41712;BME280;27399;51.516;13.670;2023-08-06T11:05:13;99231.06;;;21.57;90.48
41712;BME280;27399;51.516;13.670;2023-08-06T11:07:48;99227.56;;;21.55;90.82
41712;BME280;27399;51.516;13.670;2023-08-06T11:10:16;99229.44;;;21.55;90.61
41712;BME280;27399;51.516;13.670;2023-08-06T11:12:51;99223.25;;;21.52;88.54
41712;BME280;27399;51.516;13.670;2023-08-06T11:15:23;99226.59;;;21.56;88.50
41712;BME280;27399;51.516;13.670;2023-08-06T11:17:53;99223.38;;;21.51;86.56
41712;BME280;27399;51.516;13.670;2023-08-06T11:20:23;99222.38;;;21.65;87.29
41712;BME280;27399;51.516;13.670;2023-08-06T11:22:53;99214.38;;;21.63;85.66
41712;BME280;27399;51.516;13.670;2023-08-06T11:25:25;99216.06;;;21.64;88.87
41712;BME280;27399;51.516;13.670;2023-08-06T11:28:04;99218.78;;;21.77;89.53
41712;BME280;27399;51.516;13.670;2023-08-06T11:30:43;99199.72;;;21.53;89.18
41712;BME280;27399;51.516;13.670;2023-08-06T11:33:11;99211.22;;;21.57;87.96
41712;BME280;27399;51.516;13.670;2023-08-06T11:35:37;99209.34;;;21.70;87.30
41712;BME280;27399;51.516;13.670;2023-08-06T11:38:03;99208.94;;;21.50;86.99
41712;BME280;27399;51.516;13.670;2023-08-06T11:40:29;99201.84;;;21.24;85.05
41712;BME280;27399;51.516;13.670;2023-08-06T11:42:55;99198.97;;;21.51;87.22
41712;BME280;27399;51.516;13.670;2023-08-06T11:45:24;99204.09;;;21.43;89.14
41712;BME280;27399;51.516;13.670;2023-08-06T11:47:51;99202.66;;;21.50;87.72
41712;BME280;27399;51.516;13.670;2023-08-06T11:50:26;99206.91;;;21.41;86.88
41712;BME280;27399;51.516;13.670;2023-08-06T11:52:57;99198.75;;;21.41;87.78
41712;BME280;27399;51.516;13.670;2023-08-06T11:55:24;99196.59;;;21.46;88.50
41712;BME280;27399;51.516;13.670;2023-08-06T11:57:50;99195.63;;;21.47;89.96
41712;BME280;27399;51.516;13.670;2023-08-06T12:00:16;99195.38;;;21.50;88.60
41712;BME280;27399;51.516;13.670;2023-08-06T12:02:44;99188.75;;;21.55;86.99
41712;BME280;27399;51.516;13.670;2023-08-06T12:05:20;99194.06;;;21.56;89.51
41712;BME280;27399;51.516;13.670;2023-08-06T12:07:48;99195.97;;;21.30;86.26
41712;BME280;27399;51.516;13.670;2023-08-06T12:13:26;99190.28;;;21.46;87.14
41712;BME280;27399;51.516;13.670;2023-08-06T12:15:54;99185.75;;;21.33;89.29
41712;BME280;27399;51.516;13.670;2023-08-06T12:18:23;99198.75;;;21.41;89.62
41712;BME280;27399;51.516;13.670;2023-08-06T12:20:49;99191.84;;;21.37;86.65
41712;BME280;27399;51.516;13.670;2023-08-06T12:23:15;99198.56;;;21.44;86.39
41712;BME280;27399;51.516;13.670;2023-08-06T12:25:41;99195.72;;;21.46;87.79
41712;BME280;27399;51.516;13.670;2023-08-06T12:28:08;99194.72;;;21.47;89.26
41712;BME280;27399;51.516;13.670;2023-08-06T12:30:35;99195.28;;;21.39;86.86
41712;BME280;27399;51.516;13.670;2023-08-06T12:33:00;99194.84;;;21.45;86.94
41712;BME280;27399;51.516;13.670;2023-08-06T12:35:50;99197.38;;;21.35;87.20
41712;BME280;27399;51.516;13.670;2023-08-06T12:38:34;99189.66;;;21.42;87.06
41712;BME280;27399;51.516;13.670;2023-08-06T12:40:59;99190.31;;;21.33;85.61
41712;BME280;27399;51.516;13.670;2023-08-06T12:43:25;99183.59;;;21.39;87.01
41712;BME280;27399;51.516;13.670;2023-08-06T12:45:51;99179.28;;;21.36;86.18
41712;BME280;27399;51.516;13.670;2023-08-06T12:48:16;99176.91;;;21.31;88.54
41712;BME280;27399;51.516;13.670;2023-08-06T12:50:42;99175.03;;;21.32;85.74
41712;BME280;27399;51.516;13.670;2023-08-06T12:53:08;99179.03;;;21.39;86.97
41712;BME280;27399;51.516;13.670;2023-08-06T12:55:34;99180.38;;;21.20;86.82
41712;BME280;27399;51.516;13.670;2023-08-06T12:58:00;99173.03;;;21.10;88.83
41712;BME280;27399;51.516;13.670;2023-08-06T13:00:26;99170.28;;;21.23;89.88
41712;BME280;27399;51.516;13.670;2023-08-06T13:02:52;99177.56;;;21.09;86.24
41712;BME280;27399;51.516;13.670;2023-08-06T13:05:17;99174.91;;;21.33;88.42
41712;BME280;27399;51.516;13.670;2023-08-06T13:07:43;99177.78;;;21.19;87.75
41712;BME280;27399;51.516;13.670;2023-08-06T13:10:09;99174.19;;;21.18;88.45
41712;BME280;27399;51.516;13.670;2023-08-06T13:12:34;99173.50;;;21.41;88.65
41712;BME280;27399;51.516;13.670;2023-08-06T13:15:00;99177.97;;;21.29;89.83